To NAV CANADA Home Page Login to a new session Search on AWWS site Feedback and Comments Disclaimer Vers la page française équivalente Tips FAQ What's new on the site To the Forecasts and Observations / NOTAM section To "File a Flight Plan" website Publications and other links Update of the User's profile FIC Telephone Numbers My Weather Data Folder Route Weather Data Regional Weather Data Local Weather Data To the Forecasts and Observations / NOTAM section
Request Generated 09/03/2015 at 23:20:38 UTC . Weather information available at that time is displayed.

METAR/TAF

FORT ST. JOHN/BC    

METAR CYXJ 032300Z 34008KT 15SM -RA BKN012 OVC030 05/04 A3014 RMK
SC7SC1 SLP235=
METAR CYXJ 032200Z 36008KT 10SM -RA BKN010 OVC030 05/04 A3013 RMK
SC7SC1 SLP232=
METAR CYXJ 032100Z 34012KT 8SM -RA BKN014 OVC022 05/04 A3012 RMK
SC6SC2 SLP230=

TAF CYXJ 031843Z 0319/0407 36010KT P6SM -RA OVC010 TEMPO 0319/0321
5SM -RA BR OVC008
FM032100 34010KT P6SM OVC030 TEMPO 0321/0407 P6SM -SHRA OVC020
RMK NXT FCST BY 040100Z=
Your time UTC time
Weather data provided by Environment Canada and NAV CANADA